KOWD/OWD METAR and TAF weather

Enter ICAO airport designator
Station Type Date Time Source
KOWD METAR 2019/10/23 07:30 UTC NOAA

KOWD 230730Z AUTO 00000KT 1 3/4SM -RA BR OVC009 15/13 A2978 RMK AO2 P0002 T01500128


Station Type Date Time Source
KOWD Decoded METAR 2019/10/23 07:30 UTC NOAA

NORWOOD MEMORIAL AIRPORT, MA, United States (KOWD) 42-11N 71-10W 19M
Oct 23, 2019 - 03:30 AM EDT / 2019.10.23 0730 UTC
Wind: Calm:0
Visibility: 1 3/4 mile(s):0
Sky conditions: overcast
Weather: light rain; mist
Precipitation last hour: 0.02 inches
Temperature: 59.0 F (15.0 C)
Dew Point: 55.0 F (12.8 C)
Relative Humidity: 86%
Pressure (altimeter): 29.78 in. Hg (1008 hPa)
ob: KOWD 230730Z AUTO 00000KT 1 3/4SM -RA BR OVC009 15/13 A2978 RMK AO2 P0002 T01500128
cycle: 7

Station Type Date Time Source
KOWD TAF UTC NOAA

Error!

Example: see airport list